sensor_id;sensor_type;location;lat;lon;timestamp;temperature;humidity
50013;DHT22;35901;48.694;9.476;2024-03-08T00:00:08;2.00;99.90
50013;DHT22;35901;48.694;9.476;2024-03-08T00:02:46;1.80;99.90
50013;DHT22;35901;48.694;9.476;2024-03-08T00:05:14;2.00;99.90
50013;DHT22;35901;48.694;9.476;2024-03-08T00:07:40;2.20;99.90
50013;DHT22;35901;48.694;9.476;2024-03-08T00:10:08;2.10;99.90
50013;DHT22;35901;48.694;9.476;2024-03-08T00:12:41;2.10;99.90
50013;DHT22;35901;48.694;9.476;2024-03-08T00:15:14;2.00;99.90
50013;DHT22;35901;48.694;9.476;2024-03-08T00:17:40;1.90;99.90
50013;DHT22;35901;48.694;9.476;2024-03-08T00:20:07;1.90;99.90
50013;DHT22;35901;48.694;9.476;2024-03-08T00:22:37;1.90;99.90
50013;DHT22;35901;48.694;9.476;2024-03-08T00:25:03;1.80;99.90
50013;DHT22;35901;48.694;9.476;2024-03-08T00:27:30;1.70;99.90
50013;DHT22;35901;48.694;9.476;2024-03-08T00:29:59;1.80;99.90
50013;DHT22;35901;48.694;9.476;2024-03-08T00:32:24;1.90;99.90
50013;DHT22;35901;48.694;9.476;2024-03-08T00:34:51;1.90;99.90
50013;DHT22;35901;48.694;9.476;2024-03-08T00:37:20;2.00;99.90
50013;DHT22;35901;48.694;9.476;2024-03-08T00:39:48;2.20;99.90
50013;DHT22;35901;48.694;9.476;2024-03-08T00:42:18;2.10;99.90
50013;DHT22;35901;48.694;9.476;2024-03-08T00:44:44;2.10;99.90
50013;DHT22;35901;48.694;9.476;2024-03-08T00:47:10;2.20;99.90
50013;DHT22;35901;48.694;9.476;2024-03-08T00:49:36;2.20;99.90
50013;DHT22;35901;48.694;9.476;2024-03-08T00:52:04;2.20;99.90
50013;DHT22;35901;48.694;9.476;2024-03-08T00:54:36;2.30;99.90
50013;DHT22;35901;48.694;9.476;2024-03-08T00:57:02;2.20;99.90
50013;DHT22;35901;48.694;9.476;2024-03-08T00:59:29;2.00;99.90
50013;DHT22;35901;48.694;9.476;2024-03-08T01:01:54;1.80;99.90
50013;DHT22;35901;48.694;9.476;2024-03-08T01:04:20;1.80;99.90
50013;DHT22;35901;48.694;9.476;2024-03-08T01:06:47;1.60;99.90
50013;DHT22;35901;48.694;9.476;2024-03-08T01:09:13;1.50;99.90
50013;DHT22;35901;48.694;9.476;2024-03-08T01:11:39;1.40;99.90
50013;DHT22;35901;48.694;9.476;2024-03-08T01:14:05;1.50;99.90
50013;DHT22;35901;48.694;9.476;2024-03-08T01:16:30;1.60;99.90
50013;DHT22;35901;48.694;9.476;2024-03-08T01:18:58;1.60;99.90
50013;DHT22;35901;48.694;9.476;2024-03-08T01:21:24;1.70;99.90
50013;DHT22;35901;48.694;9.476;2024-03-08T01:23:49;1.90;99.90
50013;DHT22;35901;48.694;9.476;2024-03-08T01:26:15;1.70;99.90
50013;DHT22;35901;48.694;9.476;2024-03-08T01:28:41;1.60;99.90
50013;DHT22;35901;48.694;9.476;2024-03-08T01:31:07;1.60;99.90
50013;DHT22;35901;48.694;9.476;2024-03-08T01:33:33;1.60;99.90
50013;DHT22;35901;48.694;9.476;2024-03-08T01:35:58;1.60;99.90
50013;DHT22;35901;48.694;9.476;2024-03-08T01:38:24;1.50;99.90
50013;DHT22;35901;48.694;9.476;2024-03-08T01:40:50;1.50;99.90
50013;DHT22;35901;48.694;9.476;2024-03-08T01:43:25;1.50;99.90
50013;DHT22;35901;48.694;9.476;2024-03-08T01:45:53;1.50;99.90
50013;DHT22;35901;48.694;9.476;2024-03-08T01:48:19;1.40;99.90
50013;DHT22;35901;48.694;9.476;2024-03-08T01:50:47;1.50;99.90
50013;DHT22;35901;48.694;9.476;2024-03-08T01:53:13;1.50;99.90
50013;DHT22;35901;48.694;9.476;2024-03-08T01:55:41;1.40;99.90
50013;DHT22;35901;48.694;9.476;2024-03-08T01:58:09;1.40;99.90
50013;DHT22;35901;48.694;9.476;2024-03-08T02:00:42;1.30;99.90
50013;DHT22;35901;48.694;9.476;2024-03-08T02:03:09;1.10;99.90
50013;DHT22;35901;48.694;9.476;2024-03-08T02:05:36;1.20;99.90
50013;DHT22;35901;48.694;9.476;2024-03-08T02:08:04;1.20;99.90
50013;DHT22;35901;48.694;9.476;2024-03-08T02:10:33;1.20;99.90
50013;DHT22;35901;48.694;9.476;2024-03-08T02:13:01;1.20;99.90
50013;DHT22;35901;48.694;9.476;2024-03-08T02:15:26;1.20;99.90
50013;DHT22;35901;48.694;9.476;2024-03-08T02:17:52;1.10;99.90
50013;DHT22;35901;48.694;9.476;2024-03-08T02:20:18;1.20;99.90
50013;DHT22;35901;48.694;9.476;2024-03-08T02:22:45;1.10;99.90
50013;DHT22;35901;48.694;9.476;2024-03-08T02:25:11;1.10;99.90
50013;DHT22;35901;48.694;9.476;2024-03-08T02:27:37;1.00;99.90
50013;DHT22;35901;48.694;9.476;2024-03-08T02:30:03;1.00;99.90
50013;DHT22;35901;48.694;9.476;2024-03-08T02:32:32;1.00;99.90
50013;DHT22;35901;48.694;9.476;2024-03-08T02:34:58;1.00;99.90
50013;DHT22;35901;48.694;9.476;2024-03-08T02:37:25;1.10;99.90
50013;DHT22;35901;48.694;9.476;2024-03-08T02:39:51;1.10;99.90
50013;DHT22;35901;48.694;9.476;2024-03-08T02:42:17;1.10;99.90
50013;DHT22;35901;48.694;9.476;2024-03-08T02:44:43;1.10;99.90
50013;DHT22;35901;48.694;9.476;2024-03-08T02:47:12;1.20;99.90
50013;DHT22;35901;48.694;9.476;2024-03-08T02:49:38;1.20;99.90
50013;DHT22;35901;48.694;9.476;2024-03-08T02:52:04;1.10;99.90
50013;DHT22;35901;48.694;9.476;2024-03-08T02:54:30;1.00;99.90
50013;DHT22;35901;48.694;9.476;2024-03-08T02:56:56;1.00;99.90
50013;DHT22;35901;48.694;9.476;2024-03-08T02:59:21;0.90;99.90
50013;DHT22;35901;48.694;9.476;2024-03-08T03:01:47;0.90;99.90
50013;DHT22;35901;48.694;9.476;2024-03-08T03:04:13;0.80;99.90
50013;DHT22;35901;48.694;9.476;2024-03-08T03:06:38;0.90;99.90
50013;DHT22;35901;48.694;9.476;2024-03-08T03:09:04;0.80;99.90
50013;DHT22;35901;48.694;9.476;2024-03-08T03:11:31;0.70;99.90
50013;DHT22;35901;48.694;9.476;2024-03-08T03:13:57;0.60;99.90
50013;DHT22;35901;48.694;9.476;2024-03-08T03:16:23;0.60;99.90
50013;DHT22;35901;48.694;9.476;2024-03-08T03:18:49;0.70;99.90
50013;DHT22;35901;48.694;9.476;2024-03-08T03:21:15;0.70;99.90
50013;DHT22;35901;48.694;9.476;2024-03-08T03:23:41;0.80;99.90
50013;DHT22;35901;48.694;9.476;2024-03-08T03:26:09;0.90;99.90
50013;DHT22;35901;48.694;9.476;2024-03-08T03:28:38;0.90;99.90
50013;DHT22;35901;48.694;9.476;2024-03-08T03:31:07;0.70;99.90
50013;DHT22;35901;48.694;9.476;2024-03-08T03:33:35;0.70;99.90
50013;DHT22;35901;48.694;9.476;2024-03-08T03:36:02;0.60;99.90
50013;DHT22;35901;48.694;9.476;2024-03-08T03:38:28;0.50;99.90
50013;DHT22;35901;48.694;9.476;2024-03-08T03:40:54;0.60;99.90
50013;DHT22;35901;48.694;9.476;2024-03-08T03:43:23;0.70;99.90
50013;DHT22;35901;48.694;9.476;2024-03-08T03:45:49;0.70;99.90
50013;DHT22;35901;48.694;9.476;2024-03-08T03:48:15;0.60;99.90
50013;DHT22;35901;48.694;9.476;2024-03-08T03:50:40;0.60;99.90
50013;DHT22;35901;48.694;9.476;2024-03-08T03:53:06;0.50;99.90
50013;DHT22;35901;48.694;9.476;2024-03-08T03:55:33;0.40;99.90
50013;DHT22;35901;48.694;9.476;2024-03-08T03:57:59;0.50;99.90
50013;DHT22;35901;48.694;9.476;2024-03-08T04:00:27;0.60;99.90
50013;DHT22;35901;48.694;9.476;2024-03-08T04:02:52;0.50;99.90
50013;DHT22;35901;48.694;9.476;2024-03-08T04:05:18;0.20;99.90
50013;DHT22;35901;48.694;9.476;2024-03-08T04:07:44;0.20;99.90
50013;DHT22;35901;48.694;9.476;2024-03-08T04:10:11;0.20;99.90
50013;DHT22;35901;48.694;9.476;2024-03-08T04:12:37;0.10;99.90
50013;DHT22;35901;48.694;9.476;2024-03-08T04:15:04;-0.10;99.90
50013;DHT22;35901;48.694;9.476;2024-03-08T04:17:33;-0.30;99.90
50013;DHT22;35901;48.694;9.476;2024-03-08T04:20:03;-0.50;99.90
50013;DHT22;35901;48.694;9.476;2024-03-08T04:22:37;-0.50;99.90
50013;DHT22;35901;48.694;9.476;2024-03-08T04:25:03;-0.50;99.90
50013;DHT22;35901;48.694;9.476;2024-03-08T04:27:29;-0.60;99.90
50013;DHT22;35901;48.694;9.476;2024-03-08T04:29:55;-0.70;99.90
50013;DHT22;35901;48.694;9.476;2024-03-08T04:32:20;-0.80;99.90
50013;DHT22;35901;48.694;9.476;2024-03-08T04:34:47;-0.90;99.90
50013;DHT22;35901;48.694;9.476;2024-03-08T04:37:14;-0.90;99.90
50013;DHT22;35901;48.694;9.476;2024-03-08T04:39:43;-0.70;99.90
50013;DHT22;35901;48.694;9.476;2024-03-08T04:42:09;-0.70;99.90
50013;DHT22;35901;48.694;9.476;2024-03-08T04:44:36;-0.60;99.90
50013;DHT22;35901;48.694;9.476;2024-03-08T04:47:03;-0.50;99.90
50013;DHT22;35901;48.694;9.476;2024-03-08T04:49:32;-0.50;99.90
50013;DHT22;35901;48.694;9.476;2024-03-08T04:52:03;-0.50;99.90
50013;DHT22;35901;48.694;9.476;2024-03-08T04:54:30;-0.50;99.90
50013;DHT22;35901;48.694;9.476;2024-03-08T04:56:55;-0.40;99.90
50013;DHT22;35901;48.694;9.476;2024-03-08T04:59:21;-0.40;99.90
50013;DHT22;35901;48.694;9.476;2024-03-08T05:01:47;-0.30;99.90
50013;DHT22;35901;48.694;9.476;2024-03-08T05:04:13;-0.10;99.90
50013;DHT22;35901;48.694;9.476;2024-03-08T05:06:44;-0.10;99.90
50013;DHT22;35901;48.694;9.476;2024-03-08T05:09:09;-0.10;99.90
50013;DHT22;35901;48.694;9.476;2024-03-08T05:11:43;0.10;99.90
50013;DHT22;35901;48.694;9.476;2024-03-08T05:14:09;0.10;99.90
50013;DHT22;35901;48.694;9.476;2024-03-08T05:16:35;0.00;99.90
50013;DHT22;35901;48.694;9.476;2024-03-08T05:19:02;0.10;99.90
50013;DHT22;35901;48.694;9.476;2024-03-08T05:21:27;0.10;99.90
50013;DHT22;35901;48.694;9.476;2024-03-08T05:23:54;0.20;99.90
50013;DHT22;35901;48.694;9.476;2024-03-08T05:26:20;0.30;99.90
50013;DHT22;35901;48.694;9.476;2024-03-08T05:28:48;0.30;99.90
50013;DHT22;35901;48.694;9.476;2024-03-08T05:31:23;0.40;99.90
50013;DHT22;35901;48.694;9.476;2024-03-08T05:33:49;0.40;99.90
50013;DHT22;35901;48.694;9.476;2024-03-08T05:36:15;0.40;99.90
50013;DHT22;35901;48.694;9.476;2024-03-08T05:38:48;0.50;99.90
50013;DHT22;35901;48.694;9.476;2024-03-08T05:41:16;0.50;99.90
50013;DHT22;35901;48.694;9.476;2024-03-08T05:43:42;0.60;99.90
50013;DHT22;35901;48.694;9.476;2024-03-08T05:46:09;0.70;99.90
50013;DHT22;35901;48.694;9.476;2024-03-08T05:48:37;0.60;99.90
50013;DHT22;35901;48.694;9.476;2024-03-08T05:51:03;0.60;99.90
50013;DHT22;35901;48.694;9.476;2024-03-08T05:53:29;0.70;99.90
50013;DHT22;35901;48.694;9.476;2024-03-08T05:55:58;0.70;99.90
50013;DHT22;35901;48.694;9.476;2024-03-08T05:58:24;0.70;99.90
50013;DHT22;35901;48.694;9.476;2024-03-08T06:00:50;0.60;99.90
50013;DHT22;35901;48.694;9.476;2024-03-08T06:03:15;0.50;99.90
50013;DHT22;35901;48.694;9.476;2024-03-08T06:05:41;0.40;99.90
50013;DHT22;35901;48.694;9.476;2024-03-08T06:08:07;0.60;99.90
50013;DHT22;35901;48.694;9.476;2024-03-08T06:10:33;0.70;99.90
50013;DHT22;35901;48.694;9.476;2024-03-08T06:12:59;0.90;99.90
50013;DHT22;35901;48.694;9.476;2024-03-08T06:15:25;1.00;99.90
50013;DHT22;35901;48.694;9.476;2024-03-08T06:17:51;1.00;99.90
50013;DHT22;35901;48.694;9.476;2024-03-08T06:20:18;0.80;99.90
50013;DHT22;35901;48.694;9.476;2024-03-08T06:22:44;0.90;99.90
50013;DHT22;35901;48.694;9.476;2024-03-08T06:25:11;0.90;99.90
50013;DHT22;35901;48.694;9.476;2024-03-08T06:27:40;0.90;99.90
50013;DHT22;35901;48.694;9.476;2024-03-08T06:30:08;0.90;99.90
50013;DHT22;35901;48.694;9.476;2024-03-08T06:32:38;1.20;99.90
50013;DHT22;35901;48.694;9.476;2024-03-08T06:35:05;1.30;99.90
50013;DHT22;35901;48.694;9.476;2024-03-08T06:37:34;1.30;99.90
50013;DHT22;35901;48.694;9.476;2024-03-08T06:40:01;1.40;99.90
50013;DHT22;35901;48.694;9.476;2024-03-08T06:42:28;1.50;99.90
50013;DHT22;35901;48.694;9.476;2024-03-08T06:44:54;1.60;99.90
50013;DHT22;35901;48.694;9.476;2024-03-08T06:47:25;1.60;99.90
50013;DHT22;35901;48.694;9.476;2024-03-08T06:49:51;1.60;99.90
50013;DHT22;35901;48.694;9.476;2024-03-08T06:52:17;1.70;99.90
50013;DHT22;35901;48.694;9.476;2024-03-08T06:54:43;1.70;99.90
50013;DHT22;35901;48.694;9.476;2024-03-08T06:57:09;1.70;99.90
50013;DHT22;35901;48.694;9.476;2024-03-08T06:59:36;1.90;99.90
50013;DHT22;35901;48.694;9.476;2024-03-08T07:02:02;2.00;99.90
50013;DHT22;35901;48.694;9.476;2024-03-08T07:04:29;1.90;99.90
50013;DHT22;35901;48.694;9.476;2024-03-08T07:06:55;2.10;99.90
50013;DHT22;35901;48.694;9.476;2024-03-08T07:09:23;2.10;99.90
50013;DHT22;35901;48.694;9.476;2024-03-08T07:11:50;2.20;99.90
50013;DHT22;35901;48.694;9.476;2024-03-08T07:14:23;2.20;99.90
50013;DHT22;35901;48.694;9.476;2024-03-08T07:16:50;2.30;99.90
50013;DHT22;35901;48.694;9.476;2024-03-08T07:19:16;2.30;99.90
50013;DHT22;35901;48.694;9.476;2024-03-08T07:21:43;2.40;99.90
50013;DHT22;35901;48.694;9.476;2024-03-08T07:24:10;2.40;99.90
50013;DHT22;35901;48.694;9.476;2024-03-08T07:26:54;2.50;99.90
50013;DHT22;35901;48.694;9.476;2024-03-08T07:29:21;2.60;99.90
50013;DHT22;35901;48.694;9.476;2024-03-08T07:31:47;2.60;99.90
50013;DHT22;35901;48.694;9.476;2024-03-08T07:34:21;2.70;99.90
50013;DHT22;35901;48.694;9.476;2024-03-08T07:36:47;2.70;99.90
50013;DHT22;35901;48.694;9.476;2024-03-08T07:39:13;2.70;99.90
50013;DHT22;35901;48.694;9.476;2024-03-08T07:41:39;2.80;99.90
50013;DHT22;35901;48.694;9.476;2024-03-08T07:44:07;2.80;99.90
50013;DHT22;35901;48.694;9.476;2024-03-08T07:46:33;2.90;99.90
50013;DHT22;35901;48.694;9.476;2024-03-08T07:49:02;2.90;99.90
50013;DHT22;35901;48.694;9.476;2024-03-08T07:51:28;2.90;99.90
50013;DHT22;35901;48.694;9.476;2024-03-08T07:53:54;3.00;99.90
50013;DHT22;35901;48.694;9.476;2024-03-08T07:56:20;3.00;99.90
50013;DHT22;35901;48.694;9.476;2024-03-08T07:58:47;3.00;99.90
50013;DHT22;35901;48.694;9.476;2024-03-08T08:01:17;3.10;99.90
50013;DHT22;35901;48.694;9.476;2024-03-08T08:03:43;3.00;99.90
50013;DHT22;35901;48.694;9.476;2024-03-08T08:06:09;3.10;99.90
50013;DHT22;35901;48.694;9.476;2024-03-08T08:08:35;3.20;99.90
50013;DHT22;35901;48.694;9.476;2024-03-08T08:11:02;3.20;99.90
50013;DHT22;35901;48.694;9.476;2024-03-08T08:13:28;3.20;99.90
50013;DHT22;35901;48.694;9.476;2024-03-08T08:15:58;3.30;99.90
50013;DHT22;35901;48.694;9.476;2024-03-08T08:18:23;3.20;99.90
50013;DHT22;35901;48.694;9.476;2024-03-08T08:20:51;3.30;99.90
50013;DHT22;35901;48.694;9.476;2024-03-08T08:23:18;3.20;99.90
50013;DHT22;35901;48.694;9.476;2024-03-08T08:25:45;3.30;99.90
50013;DHT22;35901;48.694;9.476;2024-03-08T08:28:11;3.30;99.90
50013;DHT22;35901;48.694;9.476;2024-03-08T08:30:38;3.40;99.90
50013;DHT22;35901;48.694;9.476;2024-03-08T08:33:04;3.50;99.90
50013;DHT22;35901;48.694;9.476;2024-03-08T08:35:31;3.60;99.90
50013;DHT22;35901;48.694;9.476;2024-03-08T08:37:58;3.50;99.90
50013;DHT22;35901;48.694;9.476;2024-03-08T08:40:25;3.50;99.90
50013;DHT22;35901;48.694;9.476;2024-03-08T08:42:51;3.50;99.90
50013;DHT22;35901;48.694;9.476;2024-03-08T08:45:18;3.50;99.90
50013;DHT22;35901;48.694;9.476;2024-03-08T08:47:44;3.60;99.90
50013;DHT22;35901;48.694;9.476;2024-03-08T08:50:10;3.60;99.90
50013;DHT22;35901;48.694;9.476;2024-03-08T08:52:39;3.60;99.90
50013;DHT22;35901;48.694;9.476;2024-03-08T08:55:06;3.60;99.90
50013;DHT22;35901;48.694;9.476;2024-03-08T08:57:32;3.60;99.90
50013;DHT22;35901;48.694;9.476;2024-03-08T08:59:59;3.70;99.90
50013;DHT22;35901;48.694;9.476;2024-03-08T09:02:26;3.70;99.90
50013;DHT22;35901;48.694;9.476;2024-03-08T09:04:51;3.80;99.90
50013;DHT22;35901;48.694;9.476;2024-03-08T09:07:17;3.90;99.90
50013;DHT22;35901;48.694;9.476;2024-03-08T09:09:44;4.00;99.90
50013;DHT22;35901;48.694;9.476;2024-03-08T09:12:10;4.10;99.90
50013;DHT22;35901;48.694;9.476;2024-03-08T09:14:40;4.00;99.90
50013;DHT22;35901;48.694;9.476;2024-03-08T09:17:06;4.00;99.90
50013;DHT22;35901;48.694;9.476;2024-03-08T09:19:37;4.00;99.90
50013;DHT22;35901;48.694;9.476;2024-03-08T09:22:04;4.10;99.90
50013;DHT22;35901;48.694;9.476;2024-03-08T09:24:29;4.10;99.90
50013;DHT22;35901;48.694;9.476;2024-03-08T09:26:56;4.20;99.90
50013;DHT22;35901;48.694;9.476;2024-03-08T09:29:24;4.20;99.90
50013;DHT22;35901;48.694;9.476;2024-03-08T09:31:49;4.20;99.90
50013;DHT22;35901;48.694;9.476;2024-03-08T09:34:15;4.30;99.90
50013;DHT22;35901;48.694;9.476;2024-03-08T09:36:41;4.30;99.90
50013;DHT22;35901;48.694;9.476;2024-03-08T09:39:07;4.20;99.90
50013;DHT22;35901;48.694;9.476;2024-03-08T09:41:33;4.20;99.90
50013;DHT22;35901;48.694;9.476;2024-03-08T09:44:00;4.30;99.90
50013;DHT22;35901;48.694;9.476;2024-03-08T09:46:26;4.40;99.90
50013;DHT22;35901;48.694;9.476;2024-03-08T09:48:53;4.30;99.90
50013;DHT22;35901;48.694;9.476;2024-03-08T09:51:22;4.40;99.90
50013;DHT22;35901;48.694;9.476;2024-03-08T09:53:52;4.40;99.90
50013;DHT22;35901;48.694;9.476;2024-03-08T09:56:19;4.50;99.90
50013;DHT22;35901;48.694;9.476;2024-03-08T09:58:45;4.60;99.90
50013;DHT22;35901;48.694;9.476;2024-03-08T10:01:31;4.70;99.90
50013;DHT22;35901;48.694;9.476;2024-03-08T10:03:57;4.80;99.90
50013;DHT22;35901;48.694;9.476;2024-03-08T10:06:23;4.80;99.90
50013;DHT22;35901;48.694;9.476;2024-03-08T10:08:50;4.80;99.90
50013;DHT22;35901;48.694;9.476;2024-03-08T10:11:19;4.90;99.90
50013;DHT22;35901;48.694;9.476;2024-03-08T10:13:47;5.00;99.90
50013;DHT22;35901;48.694;9.476;2024-03-08T10:16:14;5.10;99.90
50013;DHT22;35901;48.694;9.476;2024-03-08T10:18:42;4.90;99.90
50013;DHT22;35901;48.694;9.476;2024-03-08T10:21:09;5.10;99.90
50013;DHT22;35901;48.694;9.476;2024-03-08T10:23:39;4.70;99.90
50013;DHT22;35901;48.694;9.476;2024-03-08T10:26:11;5.10;99.90
50013;DHT22;35901;48.694;9.476;2024-03-08T10:28:47;5.20;99.90
50013;DHT22;35901;48.694;9.476;2024-03-08T10:31:14;5.40;99.90
50013;DHT22;35901;48.694;9.476;2024-03-08T10:33:40;5.40;99.90
50013;DHT22;35901;48.694;9.476;2024-03-08T10:36:10;5.40;99.90
50013;DHT22;35901;48.694;9.476;2024-03-08T10:38:41;5.40;99.90
50013;DHT22;35901;48.694;9.476;2024-03-08T10:41:09;5.50;99.90
50013;DHT22;35901;48.694;9.476;2024-03-08T10:48:45;5.30;99.90
50013;DHT22;35901;48.694;9.476;2024-03-08T10:51:15;4.90;99.90
50013;DHT22;35901;48.694;9.476;2024-03-08T10:53:41;5.50;99.90
50013;DHT22;35901;48.694;9.476;2024-03-08T10:56:08;5.90;99.90
50013;DHT22;35901;48.694;9.476;2024-03-08T10:58:36;6.20;99.90
50013;DHT22;35901;48.694;9.476;2024-03-08T11:01:03;6.40;99.90
50013;DHT22;35901;48.694;9.476;2024-03-08T11:06:29;6.10;99.90
50013;DHT22;35901;48.694;9.476;2024-03-08T11:08:55;6.00;99.90
50013;DHT22;35901;48.694;9.476;2024-03-08T11:11:25;6.20;99.90
50013;DHT22;35901;48.694;9.476;2024-03-08T11:13:58;6.30;99.90
50013;DHT22;35901;48.694;9.476;2024-03-08T11:19:25;6.40;99.90
50013;DHT22;35901;48.694;9.476;2024-03-08T11:21:57;6.60;99.90
50013;DHT22;35901;48.694;9.476;2024-03-08T11:24:23;6.80;99.90
50013;DHT22;35901;48.694;9.476;2024-03-08T11:26:49;6.40;99.90
50013;DHT22;35901;48.694;9.476;2024-03-08T11:32:07;6.50;99.90
50013;DHT22;35901;48.694;9.476;2024-03-08T11:34:35;6.30;99.90
50013;DHT22;35901;48.694;9.476;2024-03-08T11:37:03;6.60;99.90
50013;DHT22;35901;48.694;9.476;2024-03-08T11:39:29;6.90;99.90
50013;DHT22;35901;48.694;9.476;2024-03-08T11:41:56;7.20;99.90
50013;DHT22;35901;48.694;9.476;2024-03-08T11:44:26;7.30;99.90
50013;DHT22;35901;48.694;9.476;2024-03-08T11:46:53;7.10;99.90
50013;DHT22;35901;48.694;9.476;2024-03-08T11:49:19;6.80;99.90
50013;DHT22;35901;48.694;9.476;2024-03-08T11:51:45;6.80;99.90
50013;DHT22;35901;48.694;9.476;2024-03-08T11:54:12;7.20;99.90
50013;DHT22;35901;48.694;9.476;2024-03-08T11:56:38;7.30;99.90
50013;DHT22;35901;48.694;9.476;2024-03-08T11:59:05;7.30;99.90
50013;DHT22;35901;48.694;9.476;2024-03-08T12:01:36;7.50;99.90
50013;DHT22;35901;48.694;9.476;2024-03-08T12:04:01;7.90;99.90
50013;DHT22;35901;48.694;9.476;2024-03-08T12:06:39;7.70;99.90
50013;DHT22;35901;48.694;9.476;2024-03-08T12:09:11;7.20;99.90
50013;DHT22;35901;48.694;9.476;2024-03-08T12:11:37;7.00;99.90
50013;DHT22;35901;48.694;9.476;2024-03-08T12:14:03;6.70;99.90
50013;DHT22;35901;48.694;9.476;2024-03-08T12:16:29;6.90;99.90
50013;DHT22;35901;48.694;9.476;2024-03-08T12:18:55;7.40;99.90
50013;DHT22;35901;48.694;9.476;2024-03-08T12:21:21;7.80;99.90
50013;DHT22;35901;48.694;9.476;2024-03-08T12:24:06;8.10;99.90
50013;DHT22;35901;48.694;9.476;2024-03-08T12:26:35;8.20;99.90
50013;DHT22;35901;48.694;9.476;2024-03-08T12:29:16;8.40;99.90
50013;DHT22;35901;48.694;9.476;2024-03-08T12:32:00;8.20;99.90
50013;DHT22;35901;48.694;9.476;2024-03-08T12:34:30;7.80;99.90
50013;DHT22;35901;48.694;9.476;2024-03-08T12:36:58;8.40;99.90
50013;DHT22;35901;48.694;9.476;2024-03-08T12:39:24;8.60;99.90
50013;DHT22;35901;48.694;9.476;2024-03-08T12:41:56;8.40;99.90
50013;DHT22;35901;48.694;9.476;2024-03-08T12:44:25;8.70;99.90
50013;DHT22;35901;48.694;9.476;2024-03-08T12:46:51;8.20;99.90
50013;DHT22;35901;48.694;9.476;2024-03-08T12:49:17;8.80;99.90
50013;DHT22;35901;48.694;9.476;2024-03-08T12:51:44;8.80;99.90
50013;DHT22;35901;48.694;9.476;2024-03-08T12:54:10;8.80;99.90
50013;DHT22;35901;48.694;9.476;2024-03-08T12:56:36;8.90;99.90
50013;DHT22;35901;48.694;9.476;2024-03-08T12:59:07;8.70;99.90
50013;DHT22;35901;48.694;9.476;2024-03-08T13:01:34;8.90;99.90
50013;DHT22;35901;48.694;9.476;2024-03-08T13:04:00;8.90;99.90
50013;DHT22;35901;48.694;9.476;2024-03-08T13:06:28;8.80;99.90
50013;DHT22;35901;48.694;9.476;2024-03-08T13:08:55;9.10;99.90
50013;DHT22;35901;48.694;9.476;2024-03-08T13:11:22;8.90;99.90
50013;DHT22;35901;48.694;9.476;2024-03-08T13:13:49;9.10;99.90
50013;DHT22;35901;48.694;9.476;2024-03-08T13:16:15;9.00;99.90
50013;DHT22;35901;48.694;9.476;2024-03-08T13:18:42;9.00;99.90
50013;DHT22;35901;48.694;9.476;2024-03-08T13:21:12;9.40;99.90
50013;DHT22;35901;48.694;9.476;2024-03-08T13:23:41;9.40;99.90
50013;DHT22;35901;48.694;9.476;2024-03-08T13:26:12;9.20;99.90
50013;DHT22;35901;48.694;9.476;2024-03-08T13:28:41;8.50;99.90
50013;DHT22;35901;48.694;9.476;2024-03-08T13:31:07;9.10;99.90
50013;DHT22;35901;48.694;9.476;2024-03-08T13:33:35;9.40;99.90
50013;DHT22;35901;48.694;9.476;2024-03-08T13:36:03;9.30;99.90
50013;DHT22;35901;48.694;9.476;2024-03-08T13:38:34;9.60;99.90
50013;DHT22;35901;48.694;9.476;2024-03-08T13:41:02;9.70;99.90
50013;DHT22;35901;48.694;9.476;2024-03-08T13:43:28;9.70;99.90
50013;DHT22;35901;48.694;9.476;2024-03-08T13:45:55;9.70;99.90
50013;DHT22;35901;48.694;9.476;2024-03-08T13:48:21;9.80;99.90
50013;DHT22;35901;48.694;9.476;2024-03-08T13:50:48;9.60;99.90
50013;DHT22;35901;48.694;9.476;2024-03-08T13:53:15;9.50;99.90
50013;DHT22;35901;48.694;9.476;2024-03-08T13:55:41;9.90;99.90
50013;DHT22;35901;48.694;9.476;2024-03-08T13:58:07;9.40;99.90
50013;DHT22;35901;48.694;9.476;2024-03-08T14:00:38;9.60;99.90
50013;DHT22;35901;48.694;9.476;2024-03-08T14:03:04;9.60;99.90
50013;DHT22;35901;48.694;9.476;2024-03-08T14:05:31;9.90;99.90
50013;DHT22;35901;48.694;9.476;2024-03-08T14:08:01;9.20;99.90
50013;DHT22;35901;48.694;9.476;2024-03-08T14:10:29;9.00;99.90
50013;DHT22;35901;48.694;9.476;2024-03-08T14:12:57;10.10;99.90
50013;DHT22;35901;48.694;9.476;2024-03-08T14:15:23;10.10;99.90
50013;DHT22;35901;48.694;9.476;2024-03-08T14:17:57;10.40;99.90
50013;DHT22;35901;48.694;9.476;2024-03-08T14:20:23;10.40;99.90
50013;DHT22;35901;48.694;9.476;2024-03-08T14:22:54;10.50;99.90
50013;DHT22;35901;48.694;9.476;2024-03-08T14:25:20;10.30;99.90
50013;DHT22;35901;48.694;9.476;2024-03-08T14:27:50;10.50;99.90
50013;DHT22;35901;48.694;9.476;2024-03-08T14:30:15;10.40;99.90
50013;DHT22;35901;48.694;9.476;2024-03-08T14:32:58;10.40;99.90
50013;DHT22;35901;48.694;9.476;2024-03-08T14:35:25;10.30;99.90
50013;DHT22;35901;48.694;9.476;2024-03-08T14:37:52;10.20;99.90
50013;DHT22;35901;48.694;9.476;2024-03-08T14:40:18;10.50;99.90
50013;DHT22;35901;48.694;9.476;2024-03-08T14:42:48;10.40;99.90
50013;DHT22;35901;48.694;9.476;2024-03-08T14:45:15;10.20;99.90
50013;DHT22;35901;48.694;9.476;2024-03-08T14:47:41;10.00;99.90
50013;DHT22;35901;48.694;9.476;2024-03-08T14:50:08;10.10;99.90
50013;DHT22;35901;48.694;9.476;2024-03-08T14:52:37;10.40;99.90
50013;DHT22;35901;48.694;9.476;2024-03-08T14:55:05;10.50;99.90
50013;DHT22;35901;48.694;9.476;2024-03-08T14:57:32;10.80;99.90
50013;DHT22;35901;48.694;9.476;2024-03-08T14:59:58;10.80;99.90
50013;DHT22;35901;48.694;9.476;2024-03-08T15:02:31;10.80;99.90
50013;DHT22;35901;48.694;9.476;2024-03-08T15:04:57;10.50;99.90
50013;DHT22;35901;48.694;9.476;2024-03-08T15:07:26;10.40;99.90
50013;DHT22;35901;48.694;9.476;2024-03-08T15:09:51;10.20;99.90
50013;DHT22;35901;48.694;9.476;2024-03-08T15:12:17;10.00;99.90
50013;DHT22;35901;48.694;9.476;2024-03-08T15:14:43;9.90;99.90
50013;DHT22;35901;48.694;9.476;2024-03-08T15:17:12;10.00;99.90
50013;DHT22;35901;48.694;9.476;2024-03-08T15:19:47;10.30;99.90
50013;DHT22;35901;48.694;9.476;2024-03-08T15:22:13;10.50;99.90
50013;DHT22;35901;48.694;9.476;2024-03-08T15:24:39;10.60;99.90
50013;DHT22;35901;48.694;9.476;2024-03-08T15:27:08;10.40;99.90
50013;DHT22;35901;48.694;9.476;2024-03-08T15:29:34;10.30;99.90
50013;DHT22;35901;48.694;9.476;2024-03-08T15:32:01;10.10;99.90
50013;DHT22;35901;48.694;9.476;2024-03-08T15:34:26;10.00;99.90
50013;DHT22;35901;48.694;9.476;2024-03-08T15:36:52;10.20;99.90
50013;DHT22;35901;48.694;9.476;2024-03-08T15:39:18;10.40;99.90
50013;DHT22;35901;48.694;9.476;2024-03-08T15:41:46;10.40;99.90
50013;DHT22;35901;48.694;9.476;2024-03-08T15:44:12;10.50;99.90
50013;DHT22;35901;48.694;9.476;2024-03-08T15:46:39;10.50;99.90
50013;DHT22;35901;48.694;9.476;2024-03-08T15:49:07;10.50;99.90
50013;DHT22;35901;48.694;9.476;2024-03-08T15:51:34;10.50;99.90
50013;DHT22;35901;48.694;9.476;2024-03-08T15:54:02;10.40;99.90
50013;DHT22;35901;48.694;9.476;2024-03-08T15:56:31;10.20;99.90